TimeEST,TemperatureF,Dew PointF,Humidity,Sea Level PressureIn,VisibilityMPH,Wind Direction,Wind SpeedMPH,Gust SpeedMPH,PrecipitationIn,Events,Conditions,WindDirDegrees,DateUTC
12:54 AM,21.0,17.1,85,30.00,7.0,East,3.5,-,0.00,Snow,Light Snow,90,2013-02-03 05:54:00
1:54 AM,21.0,17.1,85,29.99,8.0,Calm,Calm,-,0.00,,Overcast,0,2013-02-03 06:54:00
2:54 AM,21.0,17.1,85,29.98,7.0,Calm,Calm,-,0.00,,Overcast,0,2013-02-03 07:54:00
3:54 AM,21.0,17.1,85,29.95,8.0,Calm,Calm,-,N/A,,Overcast,0,2013-02-03 08:54:00
4:54 AM,19.9,17.1,89,29.94,9.0,Calm,Calm,-,N/A,,Overcast,0,2013-02-03 09:54:00
5:54 AM,19.9,17.1,89,29.92,9.0,Calm,Calm,-,N/A,,Overcast,0,2013-02-03 10:54:00
6:54 AM,19.0,16.0,88,29.92,10.0,Calm,Calm,-,N/A,,Overcast,0,2013-02-03 11:54:00
7:09 AM,19.4,15.8,86,29.90,10.0,Calm,Calm,-,N/A,,Overcast,0,2013-02-03 12:09:00
7:51 AM,19.4,15.8,86,29.90,7.0,Calm,Calm,-,N/A,,Overcast,0,2013-02-03 12:51:00
7:54 AM,19.0,16.0,88,29.93,7.0,Calm,Calm,-,N/A,,Overcast,0,2013-02-03 12:54:00
8:34 AM,19.4,15.8,86,29.91,9.0,Calm,Calm,-,N/A,,Overcast,0,2013-02-03 13:34:00
8:54 AM,21.0,17.1,85,29.93,9.0,Calm,Calm,-,N/A,,Overcast,0,2013-02-03 13:54:00
9:54 AM,23.0,18.0,81,29.93,7.0,Calm,Calm,-,N/A,,Overcast,0,2013-02-03 14:54:00
10:54 AM,24.1,18.0,77,29.91,9.0,Calm,Calm,-,N/A,,Overcast,0,2013-02-03 15:54:00
11:31 AM,24.8,17.6,74,29.87,10.0,Calm,Calm,-,N/A,,Overcast,0,2013-02-03 16:31:00
11:54 AM,25.0,18.0,75,29.88,10.0,ESE,3.5,-,N/A,,Mostly Cloudy,110,2013-02-03 16:54:00
12:16 PM,26.6,17.6,69,29.84,10.0,Calm,Calm,-,N/A,,Mostly Cloudy,0,2013-02-03 17:16:00
12:28 PM,26.6,17.6,69,29.83,10.0,Variable,3.5,-,N/A,,Mostly Cloudy,0,2013-02-03 17:28:00
12:54 PM,27.0,18.0,69,29.84,10.0,Calm,Calm,-,N/A,,Mostly Cloudy,0,2013-02-03 17:54:00
1:01 PM,26.6,17.6,69,29.81,10.0,Variable,4.6,-,N/A,,Scattered Clouds,0,2013-02-03 18:01:00
1:31 PM,26.6,17.6,69,29.80,10.0,SE,4.6,-,N/A,,Overcast,140,2013-02-03 18:31:00
1:54 PM,27.0,19.0,72,29.82,4.0,SE,4.6,-,0.00,Snow,Light Snow,130,2013-02-03 18:54:00
1:59 PM,26.6,19.4,74,29.79,2.5,Variable,4.6,-,0.00,Snow,Light Snow,0,2013-02-03 18:59:00
2:15 PM,26.6,19.4,74,29.79,1.8,South,6.9,-,0.00,Snow,Light Snow,180,2013-02-03 19:15:00
2:34 PM,26.6,21.2,80,29.78,2.5,Calm,Calm,-,0.00,Snow,Light Snow,0,2013-02-03 19:34:00
2:54 PM,27.0,19.9,75,29.80,2.5,Calm,Calm,-,0.00,Snow,Light Snow,0,2013-02-03 19:54:00
3:27 PM,26.6,21.2,80,29.78,1.8,Calm,Calm,-,0.00,Snow,Light Snow,0,2013-02-03 20:27:00
3:45 PM,26.6,21.2,80,29.78,2.5,Calm,Calm,-,0.00,Snow,Light Snow,0,2013-02-03 20:45:00
3:48 PM,26.6,21.2,80,29.78,3.0,Calm,Calm,-,0.00,Snow,Light Snow,0,2013-02-03 20:48:00
3:54 PM,28.0,21.0,75,29.80,4.0,Calm,Calm,-,0.00,Snow,Light Snow,0,2013-02-03 20:54:00
4:54 PM,27.0,21.0,78,29.79,5.0,SSW,3.5,-,0.00,Snow,Light Snow,200,2013-02-03 21:54:00
5:25 PM,26.6,21.2,80,29.77,5.0,Calm,Calm,-,0.00,Snow,Light Snow,0,2013-02-03 22:25:00
5:34 PM,26.6,21.2,80,29.77,4.0,Calm,Calm,-,0.00,Snow,Light Snow,0,2013-02-03 22:34:00
5:54 PM,27.0,21.0,78,29.80,8.0,Calm,Calm,-,0.00,Snow,Light Snow,0,2013-02-03 22:54:00
6:54 PM,26.1,21.9,84,29.81,6.0,Variable,4.6,-,0.00,Snow,Light Snow,0,2013-02-03 23:54:00
7:54 PM,26.1,17.1,69,29.83,10.0,West,13.8,20.7,0.00,,Overcast,270,2013-02-04 00:54:00
8:54 PM,25.0,17.1,72,29.86,6.0,WNW,13.8,-,0.00,Snow,Light Snow,290,2013-02-04 01:54:00
9:54 PM,23.0,14.0,68,29.88,9.0,WNW,15.0,25.3,0.00,Snow,Light Snow,290,2013-02-04 02:54:00
10:54 PM,21.9,10.9,63,29.90,10.0,West,16.1,25.3,0.00,,Partly Cloudy,280,2013-02-04 03:54:00
11:54 PM,21.0,9.0,60,29.92,10.0,West,9.2,-,N/A,,Clear,270,2013-02-04 04:54:00